Time;durP1;ratioP1;P1;durP2;ratioP2;P2;SDS_P1;SDS_P2;PMS_P1;PMS_P2;Temp;Humidity;BMP_temperature;BMP_pressure;BME280_temperature;BME280_humidity;BME280_pressure;Samples;Min_cycle;Max_cycle;Signal;HPM_P1;HPM_P2
2022/01/26 00:07:25;;;;;;;35.65;17.65;;;;;;;-3.32;62.60;101031.08;1661411;85;21265;-63
2022/01/26 00:10:30;;;;;;;33.58;18.67;;;;;;;-3.43;62.46;101030.72;1674089;85;21284;-63
2022/01/26 00:13:37;;;;;;;36.93;20.23;;;;;;;-3.51;62.62;101025.73;1673177;85;21256;-63
2022/01/26 00:16:44;;;;;;;34.45;20.05;;;;;;;-3.59;62.57;101023.01;1673512;85;21861;-63
2022/01/26 00:20:04;;;;;;;36.95;19.50;;;;;;;-3.68;62.71;101030.13;1672837;85;21367;-63
2022/01/26 00:26:29;;;;;;;36.10;19.20;;;;;;;-3.88;62.84;101019.45;1673903;85;21375;-62
2022/01/26 00:29:38;;;;;;;35.63;18.48;;;;;;;-4.01;62.92;101016.97;1673354;85;21425;-62
2022/01/26 00:39:30;;;;;;;30.23;17.00;;;;;;;-4.12;63.75;101009.41;1672761;86;21387;-62
2022/01/26 00:42:39;;;;;;;30.27;16.87;;;;;;;-4.10;63.64;101008.00;1673180;85;21359;-62
2022/01/26 00:45:43;;;;;;;27.80;16.07;;;;;;;-4.10;63.74;101008.88;1673252;85;21504;-62
2022/01/26 00:48:50;;;;;;;31.27;17.20;;;;;;;-4.13;63.59;101003.67;1672943;85;21379;-62
2022/01/26 00:51:56;;;;;;;30.70;16.85;;;;;;;-4.13;63.73;101002.80;1673627;85;21233;-63
2022/01/26 00:55:01;;;;;;;26.70;15.78;;;;;;;-4.11;63.72;100992.91;1672739;86;21359;-63
2022/01/26 00:58:07;;;;;;;41.02;17.10;;;;;;;-4.12;63.66;100989.36;1673106;85;21225;-62
2022/01/26 01:01:12;;;;;;;30.08;16.42;;;;;;;-4.17;63.58;100989.19;1673194;85;21442;-62
2022/01/26 01:04:19;;;;;;;31.33;17.35;;;;;;;-4.17;63.75;100974.48;1674551;83;21730;-62
2022/01/26 01:07:24;;;;;;;26.50;15.58;;;;;;;-4.12;63.85;100976.00;1673922;85;21190;-62
2022/01/26 01:10:30;;;;;;;26.65;15.45;;;;;;;-4.11;63.76;100972.41;1673746;84;21237;-63
2022/01/26 01:13:40;;;;;;;30.30;17.05;;;;;;;-4.05;63.85;100975.25;1673094;85;21430;-62
2022/01/26 01:16:44;;;;;;;26.85;15.83;;;;;;;-4.01;63.69;100964.84;1673040;85;21253;-63
2022/01/26 01:30:08;;;;;;;26.97;15.65;;;;;;;-3.95;63.41;100952.06;1672882;86;21284;-64
2022/01/26 01:36:12;;;;;;;29.17;17.23;;;;;;;-3.97;63.24;100937.89;1673022;85;21363;-62
2022/01/26 01:39:19;;;;;;;25.57;15.40;;;;;;;-3.99;63.21;100936.20;1672755;86;21312;-63
2022/01/26 01:42:24;;;;;;;25.97;15.72;;;;;;;-3.97;63.25;100937.01;1673518;85;21225;-63
2022/01/26 01:45:47;;;;;;;26.37;15.63;;;;;;;-3.97;63.13;100930.33;1672867;85;21378;-62
2022/01/26 01:48:50;;;;;;;29.30;15.43;;;;;;;-3.95;63.18;100929.80;1673712;85;21394;-64
2022/01/26 01:52:01;;;;;;;24.40;15.20;;;;;;;-3.92;63.18;100928.31;1672965;85;21375;-62
2022/01/26 01:55:04;;;;;;;30.08;16.48;;;;;;;-3.88;63.15;100923.20;1672726;85;21224;-62
2022/01/26 01:58:10;;;;;;;26.42;16.55;;;;;;;-3.81;63.12;100916.64;1673157;85;21367;-62
2022/01/26 02:01:16;;;;;;;33.30;17.62;;;;;;;-3.75;63.02;100909.19;1673412;85;21236;-63
2022/01/26 02:04:23;;;;;;;30.35;16.87;;;;;;;-3.68;62.95;100914.63;1672802;85;21241;-62
2022/01/26 02:07:29;;;;;;;29.42;17.10;;;;;;;-3.62;62.84;100918.83;1672705;85;21447;-62
2022/01/26 02:10:35;;;;;;;29.52;16.50;;;;;;;-3.54;62.73;100909.97;1673481;85;21362;-63
2022/01/26 02:20:27;;;;;;;29.00;15.85;;;;;;;-3.42;62.29;100898.19;1672648;86;21387;-63
2022/01/26 02:50:52;;;;;;;23.65;13.50;;;;;;;-3.23;61.92;100878.93;1660356;85;21394;-63
2022/01/26 02:57:29;;;;;;;23.12;14.23;;;;;;;-3.16;61.93;100874.14;1673722;85;21308;-62
2022/01/26 03:00:38;;;;;;;29.02;17.10;;;;;;;-3.13;62.01;100869.50;1672856;85;21351;-63
2022/01/26 03:03:32;;;;;;;24.12;15.30;;;;;;;-3.12;62.14;100870.34;1672830;85;21411;-62
2022/01/26 03:06:46;;;;;;;23.98;13.38;;;;;;;-3.10;62.29;100867.13;1677989;83;21239;-62
2022/01/26 03:09:54;;;;;;;21.85;14.23;;;;;;;-3.09;62.39;100875.53;1688406;84;21585;-63
2022/01/26 03:13:20;;;;;;;25.90;14.60;;;;;;;-3.09;62.52;100871.06;1688786;85;21212;-63
2022/01/26 03:16:19;;;;;;;22.90;13.30;;;;;;;-3.04;62.64;100876.17;1689031;85;21240;-63
2022/01/26 03:19:31;;;;;;;18.75;12.50;;;;;;;-3.05;62.82;100865.08;1688935;83;22834;-62
2022/01/26 03:35:29;;;;;;;19.55;11.68;;;;;;;-3.07;63.19;100861.61;1687552;84;21422;-62
2022/01/26 03:38:40;;;;;;;16.57;10.90;;;;;;;-3.07;63.30;100854.91;1668908;85;21196;-62
2022/01/26 03:41:44;;;;;;;18.60;11.65;;;;;;;-3.05;63.41;100851.70;1687522;84;21209;-62
2022/01/26 03:44:50;;;;;;;18.62;11.78;;;;;;;-3.04;63.45;100857.43;1687388;84;21248;-63
2022/01/26 03:47:55;;;;;;;19.52;12.78;;;;;;;-3.09;63.42;100851.44;1687465;85;21346;-63
2022/01/26 03:51:05;;;;;;;21.68;12.63;;;;;;;-3.09;63.59;100846.09;1687392;84;21272;-62
2022/01/26 03:54:11;;;;;;;20.57;12.63;;;;;;;-3.08;63.77;100855.88;1687400;85;21390;-63
2022/01/26 03:57:16;;;;;;;22.65;13.53;;;;;;;-3.06;63.86;100848.14;1687554;84;21200;-63
2022/01/26 04:00:24;;;;;;;21.48;12.90;;;;;;;-3.07;63.78;100838.85;1687636;84;21490;-63
2022/01/26 04:03:30;;;;;;;20.27;12.63;;;;;;;-3.09;63.77;100842.95;1687460;85;21390;-64
2022/01/26 04:06:40;;;;;;;16.40;11.78;;;;;;;-3.11;63.83;100840.81;1687524;85;21201;-63
2022/01/26 04:09:47;;;;;;;22.42;12.68;;;;;;;-3.12;63.90;100843.57;1643737;87;21327;-63
2022/01/26 04:12:54;;;;;;;19.95;12.65;;;;;;;-3.18;63.96;100839.88;1644159;87;21322;-63
2022/01/26 04:16:01;;;;;;;19.98;11.83;;;;;;;-3.17;64.22;100833.56;1620154;88;21235;-63
2022/01/26 04:19:08;;;;;;;20.20;12.95;;;;;;;-3.13;64.29;100837.37;1643172;87;21863;-63
2022/01/26 04:22:20;;;;;;;23.42;13.08;;;;;;;-3.11;64.38;100838.63;1643461;87;21375;-64
2022/01/26 04:25:26;;;;;;;19.80;11.85;;;;;;;-3.11;64.39;100835.46;1643239;87;21240;-63
2022/01/26 04:28:41;;;;;;;18.07;12.58;;;;;;;-3.11;64.32;100831.94;1643662;87;21372;-62
2022/01/26 04:31:47;;;;;;;22.27;13.18;;;;;;;-3.10;64.39;100837.22;1643880;86;21228;-65
2022/01/26 04:34:55;;;;;;;22.25;13.43;;;;;;;-3.09;64.36;100836.25;1620052;88;21243;-63
2022/01/26 04:44:34;;;;;;;23.83;13.72;;;;;;;-3.12;64.53;100835.08;1643627;87;21398;-64
2022/01/26 04:47:36;;;;;;;17.95;10.90;;;;;;;-3.18;64.52;100828.70;1644103;86;21224;-64
2022/01/26 04:50:42;;;;;;;17.92;12.13;;;;;;;-3.22;64.44;100827.61;1643657;86;21868;-63
2022/01/26 04:53:48;;;;;;;20.48;12.35;;;;;;;-3.29;64.65;100828.39;1643600;87;21224;-63
2022/01/26 04:56:56;;;;;;;21.10;12.37;;;;;;;-3.28;64.74;100823.42;1644800;86;21241;-63
2022/01/26 05:00:02;;;;;;;23.60;13.55;;;;;;;-3.26;64.89;100831.38;1645958;86;21311;-63
2022/01/26 05:03:09;;;;;;;21.65;12.93;;;;;;;-3.25;64.99;100823.27;1643910;86;21367;-63
2022/01/26 05:06:14;;;;;;;21.73;13.03;;;;;;;-3.25;64.98;100817.91;1647036;85;21226;-63
2022/01/26 05:09:32;;;;;;;19.82;13.15;;;;;;;-3.30;64.67;100816.44;1689984;82;21197;-63
2022/01/26 05:12:39;;;;;;;21.50;13.50;;;;;;;-3.38;64.81;100808.77;1740621;82;21439;-64
2022/01/26 05:15:44;;;;;;;19.55;12.03;;;;;;;-3.38;64.94;100811.45;1709580;84;21219;-62
2022/01/26 05:18:54;;;;;;;19.65;12.18;;;;;;;-3.39;64.91;100818.22;1710395;82;21330;-62
2022/01/26 05:21:59;;;;;;;20.40;12.35;;;;;;;-3.39;64.90;100821.77;1710315;83;21219;-63
2022/01/26 05:25:04;;;;;;;23.02;13.93;;;;;;;-3.38;64.83;100827.99;1710336;82;21614;-63
2022/01/26 05:28:11;;;;;;;20.30;12.80;;;;;;;-3.40;64.81;100831.21;1710472;84;21744;-64
2022/01/26 05:31:16;;;;;;;21.60;12.85;;;;;;;-3.40;64.85;100833.42;1710032;84;21215;-63
2022/01/26 05:34:22;;;;;;;20.20;13.43;;;;;;;-3.40;64.83;100826.73;1707337;82;21262;-63
2022/01/26 05:37:28;;;;;;;22.05;12.53;;;;;;;-3.40;64.71;100819.17;1700318;84;21558;-63
2022/01/26 05:40:34;;;;;;;20.57;13.90;;;;;;;-3.42;64.69;100821.92;1708083;82;21760;-63
2022/01/26 05:43:40;;;;;;;22.52;14.55;;;;;;;-3.38;64.76;100809.27;1708735;82;21287;-64
2022/01/26 05:46:48;;;;;;;21.73;13.35;;;;;;;-3.33;64.69;100812.58;1709466;84;21728;-64
2022/01/26 05:49:52;;;;;;;28.70;15.08;;;;;;;-3.33;64.56;100812.58;1710286;82;21414;-62
2022/01/26 05:53:00;;;;;;;25.32;15.20;;;;;;;-3.32;64.55;100811.62;1709635;84;21255;-62
2022/01/26 05:56:06;;;;;;;25.30;15.25;;;;;;;-3.30;64.53;100816.44;1709686;84;21247;-63
2022/01/26 05:59:12;;;;;;;25.50;14.33;;;;;;;-3.26;64.58;100804.61;1709430;82;21200;-63
2022/01/26 06:02:17;;;;;;;23.55;14.23;;;;;;;-3.23;64.42;100811.14;1709520;84;21220;-64
2022/01/26 06:05:23;;;;;;;24.27;14.05;;;;;;;-3.20;64.28;100813.19;1709936;82;21231;-63
2022/01/26 06:08:32;;;;;;;21.52;13.65;;;;;;;-3.20;64.23;100817.66;1705660;84;21239;-64
2022/01/26 06:11:38;;;;;;;25.20;14.63;;;;;;;-3.18;64.31;100811.77;1702853;82;21747;-64
2022/01/26 06:14:44;;;;;;;24.27;14.95;;;;;;;-3.12;64.25;100823.50;1689662;83;21843;-64
2022/01/26 06:17:51;;;;;;;27.42;15.20;;;;;;;-3.09;64.03;100819.31;1711156;83;21732;-64
2022/01/26 06:20:58;;;;;;;23.55;15.03;;;;;;;-3.09;63.97;100809.95;1706352;83;21278;-64
2022/01/26 06:24:06;;;;;;;24.43;15.40;;;;;;;-3.09;63.80;100807.27;1712534;83;21282;-63
2022/01/26 06:27:13;;;;;;;28.15;17.32;;;;;;;-3.08;63.69;100822.41;1712817;83;21362;-63
2022/01/26 06:30:18;;;;;;;32.98;18.65;;;;;;;-3.06;63.59;100819.19;1710713;84;21234;-63
2022/01/26 06:33:25;;;;;;;31.12;18.65;;;;;;;-3.05;63.59;100819.56;1711690;82;21776;-63
2022/01/26 06:36:31;;;;;;;32.95;18.55;;;;;;;-2.95;63.71;100820.83;1712941;83;21701;-63
2022/01/26 06:39:36;;;;;;;32.33;19.52;;;;;;;-2.89;63.50;100816.95;1712776;82;21207;-63
2022/01/26 06:43:01;;;;;;;33.85;19.62;;;;;;;-2.83;63.46;100816.61;1713913;83;21207;-63
2022/01/26 06:46:04;;;;;;;28.62;18.00;;;;;;;-2.72;63.45;100815.57;1713132;83;21231;-64
2022/01/26 06:52:20;;;;;;;28.25;17.05;;;;;;;-2.61;62.88;100826.58;1711621;84;21792;-63
2022/01/26 06:55:28;;;;;;;30.10;17.27;;;;;;;-2.57;62.68;100818.31;1712052;83;21290;-63
2022/01/26 06:58:34;;;;;;;28.85;16.85;;;;;;;-2.48;62.51;100815.59;1713511;82;21310;-64
2022/01/26 07:01:40;;;;;;;30.77;19.10;;;;;;;-2.38;62.33;100818.17;1708238;83;21279;-63
2022/01/26 07:04:49;;;;;;;26.27;16.85;;;;;;;-2.27;62.16;100818.45;1702285;82;21389;-63
2022/01/26 07:07:55;;;;;;;26.70;16.25;;;;;;;-2.18;61.95;100812.09;1712116;83;21726;-64
2022/01/26 07:11:04;;;;;;;29.12;16.95;;;;;;;-2.06;61.69;100811.40;1711690;84;21211;-64
2022/01/26 07:14:10;;;;;;;26.60;16.05;;;;;;;-1.98;61.32;100802.45;1710181;83;21227;-63
2022/01/26 07:23:45;;;;;;;32.95;18.67;;;;;;;-1.67;60.61;100813.64;1712270;82;21230;-63
2022/01/26 07:26:53;;;;;;;26.33;17.85;;;;;;;-1.58;60.25;100816.66;1695894;84;21342;-63
2022/01/26 07:29:59;;;;;;;28.50;17.50;;;;;;;-1.52;60.06;100819.44;1713103;82;21231;-63
2022/01/26 07:33:04;;;;;;;30.10;18.57;;;;;;;-1.47;59.93;100812.49;1712772;83;21227;-63
2022/01/26 07:36:09;;;;;;;30.75;18.07;;;;;;;-1.41;59.81;100812.97;1713631;83;21219;-63
2022/01/26 07:39:18;;;;;;;27.90;18.07;;;;;;;-1.33;59.70;100816.07;1713558;82;21749;-63
2022/01/26 07:42:22;;;;;;;36.88;21.05;;;;;;;-1.23;59.42;100812.36;1713658;83;21306;-63
2022/01/26 07:45:29;;;;;;;33.98;19.87;;;;;;;-1.16;59.29;100821.33;1700228;82;21402;-62
2022/01/26 07:48:37;;;;;;;31.15;18.30;;;;;;;-1.05;59.08;100823.36;1704606;83;21389;-63
2022/01/26 07:51:43;;;;;;;33.73;17.87;;;;;;;-0.97;58.72;100817.05;1713997;83;21314;-64
2022/01/26 07:54:52;;;;;;;31.42;19.32;;;;;;;-0.93;58.33;100822.61;1714011;83;21272;-63
2022/01/26 07:57:57;;;;;;;37.67;23.52;;;;;;;-0.79;58.20;100811.41;1714144;83;21208;-64
2022/01/26 08:01:04;;;;;;;32.63;18.98;;;;;;;-0.65;58.01;100821.33;1700829;83;21355;-62
2022/01/26 08:04:09;;;;;;;25.62;16.93;;;;;;;-0.61;57.32;100806.26;1702391;82;21371;-63
2022/01/26 08:07:16;;;;;;;28.02;18.17;;;;;;;-0.64;56.67;100817.67;1696348;83;21394;-64
2022/01/26 08:10:23;;;;;;;30.12;17.50;;;;;;;-0.67;56.35;100816.52;1697620;83;21437;-67
2022/01/26 08:13:29;;;;;;;31.60;17.10;;;;;;;-0.67;56.27;100817.86;1708436;82;21788;-65
2022/01/26 08:16:34;;;;;;;30.17;18.10;;;;;;;-0.59;56.12;100814.23;1709423;83;21432;-64
2022/01/26 08:19:44;;;;;;;28.92;17.23;;;;;;;-0.52;55.96;100803.45;1687569;83;21278;-63
2022/01/26 08:22:51;;;;;;;29.50;17.27;;;;;;;-0.43;55.86;100808.28;1684597;85;21354;-64
2022/01/26 08:26:00;;;;;;;26.20;16.23;;;;;;;-0.32;55.75;100808.47;1712081;83;21247;-62
2022/01/26 08:29:15;;;;;;;25.08;16.57;;;;;;;-0.20;55.28;100804.52;1712063;82;21256;-63
2022/01/26 08:32:21;;;;;;;26.42;16.48;;;;;;;-0.20;54.83;100797.79;1709036;83;21196;-64
2022/01/26 08:35:27;;;;;;;26.90;17.23;;;;;;;-0.16;54.79;100795.27;1712236;82;21199;-63
2022/01/26 08:38:32;;;;;;;25.52;16.12;;;;;;;-0.14;54.66;100792.01;1712828;82;21212;-62
2022/01/26 08:41:37;;;;;;;29.52;18.23;;;;;;;-0.07;54.50;100803.25;1702045;83;21239;-64
2022/01/26 08:44:43;;;;;;;26.73;18.45;;;;;;;-0.06;54.38;100792.85;1713304;83;21232;-64
2022/01/26 08:47:49;;;;;;;46.75;24.00;;;;;;;-0.03;54.33;100796.69;1712645;83;21211;-64
2022/01/26 08:50:55;;;;;;;45.10;21.62;;;;;;;0.02;54.35;100799.95;1712925;83;22196;-64
2022/01/26 08:54:00;;;;;;;28.80;18.12;;;;;;;0.10;54.27;100788.20;1712647;83;21301;-64
2022/01/26 08:57:05;;;;;;;26.90;17.40;;;;;;;0.17;54.18;100793.59;1687909;84;21200;-64
2022/01/26 09:00:13;;;;;;;36.25;22.35;;;;;;;0.26;54.07;100790.28;1712796;82;21266;-63
2022/01/26 09:03:18;;;;;;;29.52;19.42;;;;;;;0.32;54.04;100795.25;1653380;86;21204;-64
2022/01/26 09:06:25;;;;;;;32.28;17.98;;;;;;;0.37;53.97;100788.21;1700534;84;21267;-64
2022/01/26 09:09:43;;;;;;;29.30;17.62;;;;;;;0.39;53.74;100794.37;1700124;83;21243;-62
2022/01/26 09:12:47;;;;;;;30.35;19.00;;;;;;;0.46;53.52;100788.97;1699942;84;21220;-64
2022/01/26 09:15:53;;;;;;;28.12;17.85;;;;;;;0.53;53.33;100787.10;1670982;85;21243;-63
2022/01/26 09:19:26;;;;;;;25.90;17.45;;;;;;;0.63;53.07;100782.84;1697548;82;21757;-65
2022/01/26 09:22:24;;;;;;;30.02;18.20;;;;;;;0.71;52.76;100785.87;1697322;83;21219;-64
2022/01/26 09:25:31;;;;;;;37.13;22.90;;;;;;;0.68;52.67;100783.36;1706677;83;21243;-63
2022/01/26 09:28:39;;;;;;;28.23;18.92;;;;;;;0.70;52.64;100784.64;1703877;82;21449;-62
2022/01/26 09:31:50;;;;;;;35.38;18.95;;;;;;;0.69;52.55;100787.80;1684265;84;21188;-63
2022/01/26 09:34:57;;;;;;;30.77;18.37;;;;;;;0.59;52.35;100786.69;1712577;83;21299;-63
2022/01/26 09:38:05;;;;;;;30.80;17.82;;;;;;;0.51;52.32;100783.64;1712938;83;21631;-64
2022/01/26 09:41:14;;;;;;;26.73;17.85;;;;;;;0.48;52.46;100778.47;1706778;83;21242;-63
2022/01/26 09:44:22;;;;;;;30.85;19.55;;;;;;;0.49;52.50;100778.83;1690799;83;21275;-63
2022/01/26 09:47:30;;;;;;;30.12;18.32;;;;;;;0.57;52.42;100780.53;1693394;83;21386;-63
2022/01/26 09:50:37;;;;;;;26.90;17.75;;;;;;;0.63;52.41;100776.10;1683787;84;21271;-63
2022/01/26 09:53:44;;;;;;;30.65;19.90;;;;;;;0.79;52.26;100780.84;1704036;83;21262;-65
2022/01/26 09:56:52;;;;;;;32.85;20.68;;;;;;;0.85;52.02;100783.11;1712698;83;21251;-63
2022/01/26 10:00:00;;;;;;;34.38;21.02;;;;;;;0.91;51.90;100779.98;1711743;84;21228;-63
2022/01/26 10:03:09;;;;;;;32.03;21.62;;;;;;;0.98;51.73;100789.35;1712769;83;21243;-65
2022/01/26 10:06:21;;;;;;;39.75;24.98;;;;;;;1.02;51.48;100784.15;1711165;83;21578;-63
2022/01/26 10:19:15;;;;;;;35.95;22.52;;;;;;;1.28;51.04;100789.08;1691854;84;21783;-63
2022/01/26 10:22:23;;;;;;;37.93;22.98;;;;;;;1.35;51.00;100782.27;1686607;84;21771;-63
2022/01/26 10:25:30;;;;;;;32.38;22.02;;;;;;;1.40;50.74;100780.11;1643103;84;21330;-64
2022/01/26 10:28:59;;;;;;;35.33;22.48;;;;;;;1.44;50.60;100778.44;1687749;84;21368;-63
2022/01/26 10:32:03;;;;;;;35.23;22.98;;;;;;;1.44;50.48;100774.39;1680669;84;21250;-63
2022/01/26 10:35:11;;;;;;;38.40;22.67;;;;;;;1.45;50.50;100780.18;1692099;84;21237;-63
2022/01/26 10:38:15;;;;;;;33.02;21.33;;;;;;;1.45;50.59;100776.13;1687073;84;21254;-64
2022/01/26 10:41:28;;;;;;;36.55;24.00;;;;;;;1.38;50.59;100772.13;1676386;85;21220;-64
2022/01/26 10:44:45;;;;;;;47.17;29.18;;;;;;;1.35;50.72;100767.44;1687673;84;21776;-63
2022/01/26 10:47:49;;;;;;;39.35;24.55;;;;;;;1.33;50.60;100767.55;1692743;84;21218;-63
2022/01/26 10:51:32;;;;;;;36.25;23.02;;;;;;;1.28;50.63;100768.38;1677301;84;21377;-63
2022/01/26 10:54:23;;;;;;;33.55;23.07;;;;;;;1.22;50.72;100775.52;1704629;82;21378;-63
2022/01/26 10:57:28;;;;;;;35.17;22.32;;;;;;;1.16;50.80;100763.83;1692490;84;21212;-63
2022/01/26 11:00:34;;;;;;;37.03;23.45;;;;;;;1.05;50.87;100777.20;1710136;82;21736;-63
2022/01/26 11:03:42;;;;;;;52.05;30.88;;;;;;;0.90;51.12;100768.84;1707438;82;22109;-64
2022/01/26 11:06:50;;;;;;;44.88;26.75;;;;;;;0.82;51.57;100765.80;1706999;84;21399;-63
2022/01/26 11:09:56;;;;;;;35.58;24.20;;;;;;;0.81;51.86;100768.09;1701065;82;21255;-63
2022/01/26 11:13:09;;;;;;;35.45;22.75;;;;;;;0.83;51.96;100767.52;1706382;84;21208;-66
2022/01/26 11:16:20;;;;;;;39.25;25.37;;;;;;;0.86;51.99;100761.04;1706156;84;21251;-62
2022/01/26 11:19:26;;;;;;;36.98;23.90;;;;;;;0.84;51.93;100757.11;1699117;82;22079;-63
2022/01/26 11:22:32;;;;;;;38.50;24.25;;;;;;;0.81;52.08;100761.36;1708860;83;21247;-64
2022/01/26 11:25:48;;;;;;;38.20;25.80;;;;;;;0.82;52.04;100755.50;1708527;82;21271;-66
2022/01/26 11:28:54;;;;;;;36.85;22.58;;;;;;;0.83;52.14;100757.21;1663701;85;21807;-64
2022/01/26 11:32:28;;;;;;;36.95;23.27;;;;;;;0.82;52.00;100759.06;1708256;83;21636;-63
2022/01/26 11:35:26;;;;;;;41.53;23.98;;;;;;;0.65;51.90;100752.59;1683028;83;21356;-65
2022/01/26 11:45:26;;;;;;;;;;;;;;;0.21;52.82;100752.03;1711595;84;21374;-63
2022/01/26 11:48:37;;;;;;;41.73;25.27;;;;;;;0.13;53.24;100758.91;1706219;82;20226;-64
2022/01/26 11:51:56;;;;;;;40.03;25.20;;;;;;;0.01;53.39;100759.22;1698588;83;21235;-63
2022/01/26 11:55:09;;;;;;;40.28;25.32;;;;;;;-0.08;53.75;100763.86;1647013;86;21301;-64
2022/01/26 11:58:39;;;;;;;50.65;27.32;;;;;;;-0.18;53.82;100761.38;1683413;84;21275;-64
2022/01/26 12:01:50;;;;;;;37.58;23.50;;;;;;;-0.28;54.16;100761.10;1696562;84;21216;-63
2022/01/26 12:05:12;;;;;;;43.98;26.70;;;;;;;-0.35;54.41;100772.36;1707067;84;21278;-64
2022/01/26 12:08:18;;;;;;;43.80;27.90;;;;;;;-0.33;54.61;100767.25;1700148;84;21239;-65
2022/01/26 12:11:54;;;;;;;42.17;26.40;;;;;;;-0.41;54.64;100771.38;1696425;84;21776;-65
2022/01/26 12:15:42;;;;;;;39.73;26.27;;;;;;;-0.56;54.95;100770.55;1849255;76;22276;-65
2022/01/26 12:36:32;;;;;;;40.73;26.40;;;;;;;-0.37;55.52;100785.03;1796540;79;21184;-65
2022/01/26 12:43:03;;;;;;;57.50;29.07;;;;;;;-0.60;55.67;100789.63;1773743;79;21189;-64
2022/01/26 12:46:05;;;;;;;45.85;28.62;;;;;;;-0.80;55.88;100793.57;1779532;79;21195;-66
2022/01/26 12:49:28;;;;;;;45.85;28.27;;;;;;;-0.99;56.28;100786.72;1762608;81;21442;-64
2022/01/26 12:52:38;;;;;;;;;;;;;;;-1.11;56.70;100795.03;1744713;80;21359;-65
2022/01/26 12:56:03;;;;;;;44.15;26.90;;;;;;;-1.14;56.96;100793.03;1734590;82;20243;-65
2022/01/26 12:59:22;;;;;;;47.45;28.80;;;;;;;-1.30;57.41;100790.38;1731166;82;21541;-65
2022/01/26 13:02:34;;;;;;;39.30;25.68;;;;;;;-1.26;57.88;100791.06;1787920;79;21165;-64
2022/01/26 13:05:41;;;;;;;45.25;27.00;;;;;;;-1.22;57.98;100791.28;1792687;79;21587;-64
2022/01/26 13:08:52;;;;;;;45.75;27.50;;;;;;;-1.24;58.01;100794.06;1801043;79;21228;-63
2022/01/26 13:11:58;;;;;;;52.30;30.57;;;;;;;-1.24;58.23;100798.56;1786508;79;21592;-63
2022/01/26 13:15:23;;;;;;;49.75;29.23;;;;;;;-1.29;58.40;100808.70;1777637;78;21777;-63
2022/01/26 13:19:33;;;;;;;48.83;29.00;;;;;;;-1.31;58.67;100802.09;1759722;76;21224;-63
2022/01/26 13:35:05;;;;;;;56.92;32.30;;;;;;;-1.95;59.38;100817.52;1732671;79;21250;-63
2022/01/26 13:38:16;;;;;;;57.38;32.88;;;;;;;-2.06;59.67;100821.28;1774448;76;21570;-63
2022/01/26 13:41:31;;;;;;;51.20;31.60;;;;;;;-2.10;59.77;100830.44;1777512;78;21287;-62
2022/01/26 13:44:51;;;;;;;44.90;28.02;;;;;;;-2.17;59.79;100821.02;1778799;78;21204;-63
2022/01/26 13:54:25;;;;;;;58.60;33.02;;;;;;;-2.32;60.56;100826.75;1767093;79;21230;-64
2022/01/26 14:00:37;;;;;;;53.87;31.48;;;;;;;-2.36;61.05;100841.25;1791672;76;21212;-63
2022/01/26 14:03:38;;;;;;;59.80;34.33;;;;;;;-2.38;61.22;100836.44;1793968;78;21413;-63
2022/01/26 14:06:43;;;;;;;54.88;31.82;;;;;;;-2.32;61.38;100832.11;1791350;79;21212;-63
2022/01/26 14:09:48;;;;;;;59.30;34.67;;;;;;;-2.29;61.37;100828.38;1767514;78;21514;-62
2022/01/26 14:12:56;;;;;;;56.60;32.80;;;;;;;-2.35;61.27;100834.95;1725910;79;21208;-63
2022/01/26 14:16:10;;;;;;;54.18;32.10;;;;;;;-2.44;61.51;100835.44;1722088;80;21206;-62
2022/01/26 14:22:36;;;;;;;56.98;32.75;;;;;;;-2.64;61.78;100842.36;1781075;78;21247;-62
2022/01/26 14:25:36;;;;;;;55.67;32.45;;;;;;;-2.78;62.19;100843.56;1774593;77;21213;-63
2022/01/26 14:28:41;;;;;;;63.00;35.98;;;;;;;-2.78;62.67;100842.69;1770176;78;21349;-63
2022/01/26 15:52:08;;;;;;;52.35;28.90;;;;;;;-3.17;64.81;100909.39;1780343;76;21219;-63
2022/01/26 15:58:43;;;;;;;60.88;34.20;;;;;;;-3.15;65.26;100918.23;1765500;78;21757;-62
2022/01/26 16:08:34;;;;;;;57.10;32.35;;;;;;;-2.95;65.31;100910.54;1777346;78;21196;-63
2022/01/26 16:21:33;;;;;;;62.45;33.50;;;;;;;-2.95;65.21;100918.57;1757206;77;20242;-64
2022/01/26 17:25:29;;;;;;;52.60;28.73;;;;;;;-3.09;66.56;100946.03;1755143;78;21206;-63
2022/01/26 18:31:55;;;;;;;57.88;31.57;;;;;;;-2.55;66.09;100958.41;1675554;82;21286;-64
2022/01/26 18:52:02;;;;;;;55.10;30.35;;;;;;;-2.61;65.82;100941.33;1791028;76;21726;-63
2022/01/26 18:55:11;;;;;;;54.60;31.62;;;;;;;-2.55;66.18;100953.06;1750171;78;21706;-63
2022/01/26 18:58:16;;;;;;;50.92;29.77;;;;;;;-2.51;66.01;100953.31;1717280;79;21729;-63
2022/01/26 19:01:21;;;;;;;54.03;31.07;;;;;;;-2.49;65.92;100950.05;1709395;79;21284;-64
2022/01/26 19:04:40;;;;;;;56.92;31.37;;;;;;;-2.54;65.92;100945.44;1724636;79;21418;-65
2022/01/26 19:07:44;;;;;;;57.00;31.20;;;;;;;-2.48;65.91;100953.61;1731128;80;21362;-65
2022/01/26 19:10:49;;;;;;;50.33;27.98;;;;;;;-2.48;65.92;100946.91;1782233;78;21457;-65
2022/01/26 19:13:55;;;;;;;57.45;31.40;;;;;;;-2.41;65.95;100955.87;1747493;78;21404;-64
2022/01/26 19:17:10;;;;;;;55.50;31.42;;;;;;;-2.36;65.92;100953.83;1719779;80;21277;-64
2022/01/26 19:23:45;;;;;;;60.58;33.10;;;;;;;-2.21;65.76;100952.16;1781865;76;21201;-66
2022/01/26 19:26:49;;;;;;;57.58;32.58;;;;;;;-2.16;65.53;100954.12;1741482;79;21373;-64
2022/01/26 19:46:48;;;;;;;51.02;30.25;;;;;;;-2.04;65.01;100967.73;1715806;79;21258;-64
2022/01/26 19:53:03;;;;;;;57.03;33.42;;;;;;;-2.08;65.02;100974.20;1726530;81;21354;-63
2022/01/26 19:56:10;;;;;;;56.10;32.58;;;;;;;-2.07;65.02;100971.93;1772913;79;21362;-66
2022/01/26 19:59:18;;;;;;;57.23;31.48;;;;;;;-2.04;65.20;100967.73;1782052;79;21264;-62
2022/01/26 20:02:25;;;;;;;55.35;30.65;;;;;;;-1.99;65.13;100974.19;1752247;78;21216;-63
2022/01/26 20:05:35;;;;;;;52.40;29.12;;;;;;;-1.99;64.99;100974.19;1791708;78;22089;-62
2022/01/26 20:09:33;;;;;;;51.70;29.98;;;;;;;-2.01;64.92;100966.23;1781533;77;21364;-63
2022/01/26 20:12:00;;;;;;;58.90;32.65;;;;;;;-2.02;64.78;100968.53;1765885;78;21851;-63
2022/01/26 20:15:00;;;;;;;62.38;34.13;;;;;;;-1.98;65.03;100965.19;1788571;79;21225;-62
2022/01/26 20:18:05;;;;;;;59.85;33.53;;;;;;;-1.92;64.94;100966.22;1785684;78;21358;-65
2022/01/26 20:21:12;;;;;;;64.25;34.45;;;;;;;-1.88;65.04;100963.74;1783679;78;21454;-63
2022/01/26 20:24:17;;;;;;;66.50;35.70;;;;;;;-1.81;65.10;100974.05;1777817;79;21368;-63
2022/01/26 20:27:23;;;;;;;61.60;34.95;;;;;;;-1.79;65.04;100968.13;1775822;78;21264;-63
2022/01/26 20:30:29;;;;;;;59.05;31.23;;;;;;;-1.75;64.85;100963.01;1792454;78;21438;-65
2022/01/26 20:33:39;;;;;;;60.33;34.27;;;;;;;-1.74;64.75;100976.80;1782438;77;21359;-62
2022/01/26 20:36:44;;;;;;;72.75;39.38;;;;;;;-1.74;64.62;100979.48;1786966;77;21289;-65
2022/01/26 20:39:52;;;;;;;83.70;47.27;;;;;;;-1.71;64.65;100980.66;1775146;79;21312;-63
2022/01/26 20:42:59;;;;;;;73.37;43.10;;;;;;;-1.68;64.50;100978.27;1781236;78;21339;-63
2022/01/26 20:46:05;;;;;;;72.95;40.38;;;;;;;-1.71;64.39;100977.97;1794750;78;21216;-63
2022/01/26 20:49:11;;;;;;;78.67;43.35;;;;;;;-1.71;64.38;100976.63;1787626;78;21371;-64
2022/01/26 20:52:17;;;;;;;71.30;39.42;;;;;;;-1.75;64.29;100984.47;1790699;79;21327;-63
2022/01/26 20:55:26;;;;;;;68.85;38.28;;;;;;;-1.77;64.40;100981.00;1788495;77;21360;-63
2022/01/26 20:58:31;;;;;;;67.12;37.60;;;;;;;-1.75;64.60;100976.89;1782202;77;21240;-64
2022/01/26 21:01:37;;;;;;;64.12;36.53;;;;;;;-1.71;64.65;100980.66;1783829;79;21537;-65
2022/01/26 21:04:43;;;;;;;84.03;43.70;;;;;;;-1.65;64.70;100982.16;1777133;76;21359;-65
2022/01/26 21:07:50;;;;;;;78.10;39.85;;;;;;;-1.62;64.52;100973.43;1777458;79;21218;-62
2022/01/26 21:10:57;;;;;;;88.58;44.90;;;;;;;-1.61;64.54;100970.28;1791359;77;21355;-63
2022/01/26 21:14:03;;;;;;;76.07;39.03;;;;;;;-1.58;64.48;100980.38;1737411;80;21255;-62
2022/01/26 21:17:12;;;;;;;74.20;37.55;;;;;;;-1.57;64.35;100978.07;1787998;77;21209;-62
2022/01/26 21:20:21;;;;;;;72.53;37.20;;;;;;;-1.59;64.37;100981.31;1774010;75;21275;-63
2022/01/26 21:23:29;;;;;;;67.45;36.50;;;;;;;-1.58;64.38;100990.23;1793382;77;21240;-63